createdAt,value
2023-01-25T00:03:36.931Z,22.59
2023-01-25T00:08:38.509Z,22.58
2023-01-25T00:13:39.881Z,22.63
2023-01-25T00:18:41.258Z,22.59
2023-01-25T00:23:42.643Z,22.59
2023-01-25T00:28:48.270Z,22.60
2023-01-25T00:33:51.221Z,22.56
2023-01-25T00:38:53.470Z,22.61
2023-01-25T00:43:54.892Z,22.58
2023-01-25T00:48:56.349Z,22.60
2023-01-25T00:53:57.713Z,22.59
2023-01-25T00:58:59.111Z,22.57
2023-01-25T01:04:00.494Z,22.59
2023-01-25T01:09:02.094Z,22.60
2023-01-25T01:14:03.467Z,22.55
2023-01-25T01:19:04.850Z,22.54
2023-01-25T01:24:06.513Z,22.59
2023-01-25T01:29:10.248Z,22.60
2023-01-25T01:34:13.171Z,22.62
2023-01-25T01:39:14.614Z,22.58
2023-01-25T01:44:22.396Z,22.57
2023-01-25T01:49:27.582Z,22.56
2023-01-25T01:54:43.535Z,22.56
2023-01-25T02:00:03.774Z,22.58
2023-01-25T02:05:06.163Z,22.58
2023-01-25T02:10:09.835Z,22.53
2023-01-25T02:15:11.773Z,22.57
2023-01-25T02:20:33.013Z,22.56
2023-01-25T02:25:34.649Z,22.60
2023-01-25T02:30:36.022Z,22.56
2023-01-25T02:35:44.433Z,22.56
2023-01-25T02:40:48.813Z,22.56
2023-01-25T02:45:52.648Z,22.56
2023-01-25T02:50:54.087Z,22.55
2023-01-25T02:55:55.522Z,22.52
2023-01-25T03:00:56.894Z,22.59
2023-01-25T03:05:58.407Z,22.54
2023-01-25T03:11:00.624Z,22.57
2023-01-25T03:16:06.823Z,22.57
2023-01-25T03:21:09.839Z,22.57
2023-01-25T03:26:19.207Z,22.61
2023-01-25T03:31:20.751Z,22.61
2023-01-25T03:36:22.320Z,22.59
2023-01-25T03:41:23.772Z,22.59
2023-01-25T03:46:25.505Z,22.56
2023-01-25T03:51:26.976Z,22.52
2023-01-25T03:56:28.359Z,22.57
2023-01-25T04:01:29.771Z,22.58
2023-01-25T04:06:31.198Z,22.53
2023-01-25T04:11:32.627Z,22.61
2023-01-25T04:16:36.060Z,22.60
2023-01-25T04:21:37.558Z,22.57
2023-01-25T04:26:38.947Z,22.57
2023-01-25T04:31:40.355Z,22.57
2023-01-25T04:36:41.803Z,22.53
2023-01-25T04:41:44.757Z,22.54
2023-01-25T04:46:46.256Z,22.53
2023-01-25T04:51:47.658Z,22.51
2023-01-25T04:56:49.051Z,22.57
2023-01-25T05:01:50.447Z,22.54
2023-01-25T05:06:51.826Z,22.53
2023-01-25T05:11:53.312Z,22.51
2023-01-25T05:16:54.724Z,22.55
2023-01-25T05:21:59.016Z,22.52
2023-01-25T05:27:00.584Z,22.55
2023-01-25T05:32:15.287Z,22.55
2023-01-25T05:37:18.281Z,22.58
2023-01-25T05:42:19.689Z,22.56
2023-01-25T05:47:21.094Z,22.57
2023-01-25T05:52:22.520Z,22.61
2023-01-25T05:57:23.942Z,22.60
2023-01-25T06:02:25.480Z,22.66
2023-01-25T06:07:26.963Z,22.68
2023-01-25T06:12:29.543Z,22.67
2023-01-25T06:17:31.666Z,22.65
2023-01-25T06:22:33.045Z,22.67
2023-01-25T06:27:34.431Z,22.64
2023-01-25T06:32:35.797Z,22.60
2023-01-25T06:37:37.183Z,22.59
2023-01-25T06:42:38.578Z,22.55
2023-01-25T06:47:40.302Z,22.55
2023-01-25T06:52:41.734Z,22.53
2023-01-25T06:57:43.098Z,22.59
2023-01-25T07:02:44.520Z,22.55
2023-01-25T07:07:46.446Z,22.63
2023-01-25T07:12:47.830Z,22.53
2023-01-25T07:17:49.218Z,22.67
2023-01-25T07:22:50.680Z,22.69
2023-01-25T07:27:52.058Z,22.71
2023-01-25T07:32:54.089Z,22.77
2023-01-25T07:37:55.638Z,22.76
2023-01-25T07:42:57.095Z,22.83
2023-01-25T07:47:58.894Z,22.81
2023-01-25T07:53:00.443Z,22.77
2023-01-25T07:58:01.883Z,22.75
2023-01-25T08:03:03.276Z,22.78
2023-01-25T08:08:04.750Z,22.80
2023-01-25T08:13:06.788Z,22.90
2023-01-25T08:18:08.197Z,22.91
2023-01-25T08:23:09.622Z,22.81
2023-01-25T08:28:11.029Z,22.87
2023-01-25T08:33:12.437Z,22.83
2023-01-25T08:38:13.817Z,22.88
2023-01-25T08:43:15.231Z,22.82
2023-01-25T08:48:16.666Z,22.88
2023-01-25T08:53:18.099Z,22.85
2023-01-25T08:58:21.867Z,22.84
2023-01-25T09:03:23.350Z,22.86
2023-01-25T09:08:24.763Z,22.84
2023-01-25T09:13:26.176Z,22.91
2023-01-25T09:18:28.759Z,22.88
2023-01-25T09:23:31.638Z,22.86
2023-01-25T09:28:33.262Z,22.88
2023-01-25T09:33:35.678Z,22.91
2023-01-25T09:38:37.083Z,22.92
2023-01-25T09:43:45.653Z,22.88
2023-01-25T09:49:09.126Z,22.91
2023-01-25T09:54:13.324Z,22.88
2023-01-25T09:59:16.484Z,22.89
2023-01-25T10:04:19.268Z,22.94
2023-01-25T10:09:39.340Z,22.93
2023-01-25T10:14:40.747Z,22.90
2023-01-25T10:20:07.939Z,22.94
2023-01-25T10:25:27.537Z,22.91
2023-01-25T10:30:30.743Z,22.92
2023-01-25T10:35:39.036Z,22.96
2023-01-25T10:40:45.533Z,22.92
2023-01-25T10:45:48.013Z,22.90
2023-01-25T10:50:51.238Z,22.97
2023-01-25T10:56:10.921Z,22.93
2023-01-25T11:01:25.314Z,22.95
2023-01-25T11:06:33.918Z,22.98
2023-01-25T11:11:36.261Z,22.99
2023-01-25T11:16:38.805Z,22.96
2023-01-25T11:21:40.338Z,22.97
2023-01-25T11:26:41.858Z,22.95
2023-01-25T11:31:50.433Z,22.91
2023-01-25T11:37:19.248Z,22.92
2023-01-25T11:42:46.488Z,22.95
2023-01-25T11:47:59.426Z,22.99
2023-01-25T11:53:42.234Z,22.98
2023-01-25T11:59:08.878Z,22.95
2023-01-25T12:04:23.908Z,22.89
2023-01-25T12:09:44.352Z,22.97
2023-01-25T12:14:58.903Z,22.92
2023-01-25T12:20:21.468Z,22.91
2023-01-25T12:25:30.083Z,22.96
2023-01-25T12:30:51.761Z,22.93
2023-01-25T12:35:54.869Z,23.00
2023-01-25T12:41:04.224Z,22.96
2023-01-25T12:46:13.321Z,23.03
2023-01-25T12:51:15.143Z,23.02
2023-01-25T12:56:28.981Z,22.96
2023-01-25T13:01:35.042Z,22.96
2023-01-25T13:06:50.647Z,22.95
2023-01-25T13:11:51.908Z,23.02
2023-01-25T13:17:09.306Z,22.96
2023-01-25T13:22:11.733Z,23.00
2023-01-25T13:27:29.459Z,23.05
2023-01-25T13:32:33.713Z,23.07
2023-01-25T13:37:35.682Z,23.01
2023-01-25T13:42:38.452Z,22.96
2023-01-25T13:47:39.896Z,22.98
2023-01-25T13:53:01.958Z,23.03
2023-01-25T13:58:28.548Z,22.97
2023-01-25T14:03:31.389Z,22.97
2023-01-25T14:08:32.844Z,23.03
2023-01-25T14:13:34.268Z,22.97
2023-01-25T14:18:37.804Z,22.95
2023-01-25T14:23:39.377Z,22.92
2023-01-25T14:28:45.602Z,22.74
2023-01-25T14:33:54.485Z,22.61
2023-01-25T14:38:56.066Z,22.61
2023-01-25T14:44:05.226Z,22.60
2023-01-25T14:49:09.568Z,22.53
2023-01-25T14:54:26.907Z,22.58
2023-01-25T14:59:32.261Z,22.60
2023-01-25T15:04:35.472Z,22.58
2023-01-25T15:09:42.871Z,22.48
2023-01-25T15:14:49.009Z,22.51
2023-01-25T15:19:53.246Z,22.56
2023-01-25T15:24:58.595Z,22.55
2023-01-25T15:30:00.183Z,22.46
2023-01-25T15:35:02.290Z,22.47
2023-01-25T15:40:03.899Z,22.54
2023-01-25T15:45:06.902Z,22.56
2023-01-25T15:50:16.089Z,22.52
2023-01-25T15:55:17.479Z,22.46
2023-01-25T16:00:21.248Z,22.51
2023-01-25T16:05:22.743Z,22.56
2023-01-25T16:10:24.382Z,22.55
2023-01-25T16:15:25.782Z,22.47
2023-01-25T16:20:27.158Z,22.45
2023-01-25T16:25:28.546Z,22.50
2023-01-25T16:30:32.359Z,22.57
2023-01-25T16:35:33.797Z,22.50
2023-01-25T16:40:39.600Z,22.45
2023-01-25T16:45:40.879Z,22.45
2023-01-25T16:50:42.264Z,22.53
2023-01-25T16:55:43.680Z,22.52
2023-01-25T17:00:46.098Z,22.43
2023-01-25T17:05:47.489Z,22.40
2023-01-25T17:10:49.403Z,22.46
2023-01-25T17:15:50.880Z,22.48
2023-01-25T17:21:03.472Z,22.45
2023-01-25T17:26:05.645Z,22.38
2023-01-25T17:31:17.233Z,22.35
2023-01-25T17:36:18.909Z,22.42
2023-01-25T17:41:20.351Z,22.45
2023-01-25T17:46:27.686Z,22.40
2023-01-25T17:51:29.227Z,22.33
2023-01-25T17:56:30.610Z,22.36
2023-01-25T18:01:32.211Z,22.45
2023-01-25T18:06:33.708Z,22.44
2023-01-25T18:11:36.081Z,22.35
2023-01-25T18:16:38.669Z,22.34
2023-01-25T18:21:41.932Z,22.37
2023-01-25T18:26:43.340Z,22.40
2023-01-25T18:31:45.395Z,22.35
2023-01-25T18:36:48.203Z,22.34
2023-01-25T18:41:49.787Z,22.36
2023-01-25T18:46:51.222Z,22.42
2023-01-25T18:52:08.745Z,22.40
2023-01-25T18:57:13.161Z,22.34
2023-01-25T19:02:15.768Z,22.34
2023-01-25T19:07:17.200Z,22.41
2023-01-25T19:12:18.596Z,22.40
2023-01-25T19:17:19.992Z,22.35
2023-01-25T19:22:21.460Z,22.34
2023-01-25T19:27:22.858Z,22.39
2023-01-25T19:32:24.238Z,22.42
2023-01-25T19:37:25.630Z,22.37
2023-01-25T19:42:27.015Z,22.32
2023-01-25T19:47:28.397Z,22.35
2023-01-25T19:52:29.793Z,22.41
2023-01-25T19:57:32.499Z,22.38
2023-01-25T20:02:33.926Z,22.33
2023-01-25T20:07:35.334Z,22.33
2023-01-25T20:12:36.718Z,22.41
2023-01-25T20:17:38.101Z,22.41
2023-01-25T20:22:39.505Z,22.34
2023-01-25T20:27:40.956Z,22.32
2023-01-25T20:32:42.360Z,22.38
2023-01-25T20:37:43.781Z,22.41
2023-01-25T20:42:45.163Z,22.40
2023-01-25T20:47:46.565Z,22.32
2023-01-25T20:52:48.004Z,22.31
2023-01-25T20:57:49.430Z,22.37
2023-01-25T21:02:50.886Z,22.40
2023-01-25T21:07:52.282Z,22.36
2023-01-25T21:12:53.687Z,22.31
2023-01-25T21:17:55.073Z,22.33
2023-01-25T21:22:56.581Z,22.39
2023-01-25T21:27:58.150Z,22.38
2023-01-25T21:32:59.545Z,22.33
2023-01-25T21:38:00.919Z,22.33
2023-01-25T21:43:02.297Z,22.38
2023-01-25T21:48:03.727Z,22.40
2023-01-25T21:53:05.102Z,22.31
2023-01-25T21:58:06.484Z,22.30
2023-01-25T22:03:08.141Z,22.36
2023-01-25T22:08:10.571Z,22.41
2023-01-25T22:13:13.152Z,22.36
2023-01-25T22:18:14.683Z,22.31
2023-01-25T22:23:16.058Z,22.35
2023-01-25T22:28:17.425Z,22.39
2023-01-25T22:33:21.326Z,22.39
2023-01-25T22:38:22.726Z,22.33
2023-01-25T22:43:24.112Z,22.38
2023-01-25T22:48:25.495Z,22.43
2023-01-25T22:53:26.874Z,22.38
2023-01-25T22:58:28.486Z,22.35
2023-01-25T23:03:29.992Z,22.30
2023-01-25T23:08:33.708Z,22.38
2023-01-25T23:13:36.959Z,22.38
2023-01-25T23:18:50.158Z,22.37
2023-01-25T23:23:51.755Z,22.31
2023-01-25T23:28:54.228Z,22.38
2023-01-25T23:33:58.133Z,22.42
2023-01-25T23:38:59.563Z,22.35
2023-01-25T23:44:01.749Z,22.31
2023-01-25T23:49:03.161Z,22.36
2023-01-25T23:54:04.658Z,22.39
2023-01-25T23:59:07.614Z,22.36
